Jump to content


SKYWEST AIRLINES FLIGHT OO3705 FLOWN ON 09-05-2017 BY CAPTAIN JIM BOERMAN

Pilot StatsCaptain Jim Boerman (LDP136) • 4,578.9 total hours • 1,395 total flights [View Logbook]
FLIGHT DETAILS
StatusReceived and approved on 2017-09-05 at 10:09:39
Origin AirportIndianapolis Intl (KIND) • Indianapolis, Indiana, United States (797 feet MSL)
Filed Flight PlanKIND MACES J89 CADIZ KORD
Destination AirportChicago-OHare Intl (KORD) • Chicago, Illinois, United States (668 feet MSL)
Alternate AirportDane Co Regl-Truax (KMSN) • Madison, Wisconsin, United States (887 feet MSL)
AirlineSkywest Airlines
AircraftEmbraer E-175 (E75 / E175)
FS Aircraft UsedEmbraer 175 UAX
Cruising AltitudeFL360
Distance Flown154 nautical miles
Passengers Onboard51 passengers (60.71% full)
DEPARTURE DETAILS
Time Out08:48:51
Taxi Data77,000 lbs total with 7,087 lbs of fuel onboard
Takeoff Data09:02:52 (14 minutes after leaving gate/ramp) • 76,438 lbs total • 6° pitch at 154 knots
Departure METARKIND 051254Z 31013KT 9SM FEW030 BKN220 16/12 A2989 RMK AO2 SLP115 T01560122
ARRIVAL DETAILS
Landing Data09:48:08 • 73,728 lbs total • 5° pitch doing 122 knots at a rate of -86.12 feet/minute with 3,635 lbs of fuel onboard
Time In09:54:03 (6 minutes after landing)
Ramp Weight73,527 lbs total
Total Fuel Used3,452 lbs
Total Block Time01:04:35 (1.1 hours) while 20 minutes were spent on the ground
Arrival METARKORD 051451Z 30010KT 10SM FEW020 16/09 A2989 RMK AO2 SLP120 T01610094 51003
MISCELLANEOUS DETAILS
LiveDISPATCH Version4.8.3.1
FS Version
FSUIPC Version4.93
OS VersionWindows 7 32-bit
Screen Resolution1920 x 1080
Pilot's CommentsNo Comments Reported
FLIGHT MAP